sensor_id;sensor_type;location;lat;lon;timestamp;P1;P2;P0
14880;PMS7003;7533;51.278;12.588;2023-02-26T00:00:44;0.00;0.00;0.00
14880;PMS7003;7533;51.278;12.588;2023-02-26T00:05:47;0.00;0.00;0.00
14880;PMS7003;7533;51.278;12.588;2023-02-26T00:10:51;0.00;0.00;0.00
14880;PMS7003;7533;51.278;12.588;2023-02-26T00:15:57;0.00;0.00;0.00
14880;PMS7003;7533;51.278;12.588;2023-02-26T00:21:02;0.00;0.00;0.00
14880;PMS7003;7533;51.278;12.588;2023-02-26T00:26:05;0.00;0.00;0.00
14880;PMS7003;7533;51.278;12.588;2023-02-26T00:31:10;0.00;0.00;0.00
14880;PMS7003;7533;51.278;12.588;2023-02-26T00:36:17;0.00;0.00;0.00
14880;PMS7003;7533;51.278;12.588;2023-02-26T00:41:23;0.00;0.00;0.00
14880;PMS7003;7533;51.278;12.588;2023-02-26T00:46:31;0.00;0.00;0.00
14880;PMS7003;7533;51.278;12.588;2023-02-26T00:51:41;0.00;0.00;0.00
14880;PMS7003;7533;51.278;12.588;2023-02-26T00:56:50;0.00;0.00;0.00
14880;PMS7003;7533;51.278;12.588;2023-02-26T01:01:55;0.00;0.00;0.00
14880;PMS7003;7533;51.278;12.588;2023-02-26T01:06:58;0.00;0.00;0.00
14880;PMS7003;7533;51.278;12.588;2023-02-26T01:12:03;0.00;0.00;0.00
14880;PMS7003;7533;51.278;12.588;2023-02-26T01:17:12;0.00;0.00;0.00
14880;PMS7003;7533;51.278;12.588;2023-02-26T01:22:21;0.00;0.00;0.00
14880;PMS7003;7533;51.278;12.588;2023-02-26T01:27:27;0.00;0.00;0.00
14880;PMS7003;7533;51.278;12.588;2023-02-26T01:32:35;0.00;0.00;0.00
14880;PMS7003;7533;51.278;12.588;2023-02-26T01:37:46;0.00;0.00;0.00
14880;PMS7003;7533;51.278;12.588;2023-02-26T01:42:56;0.00;0.00;0.00
14880;PMS7003;7533;51.278;12.588;2023-02-26T01:48:06;0.00;0.00;0.00
14880;PMS7003;7533;51.278;12.588;2023-02-26T01:53:20;0.00;0.00;0.00
14880;PMS7003;7533;51.278;12.588;2023-02-26T01:58:25;0.00;0.00;0.00
14880;PMS7003;7533;51.278;12.588;2023-02-26T02:03:34;0.00;0.00;0.00
14880;PMS7003;7533;51.278;12.588;2023-02-26T02:08:41;0.00;0.00;0.00
14880;PMS7003;7533;51.278;12.588;2023-02-26T02:13:49;0.00;0.00;0.00
14880;PMS7003;7533;51.278;12.588;2023-02-26T02:19:04;0.00;0.00;0.00
14880;PMS7003;7533;51.278;12.588;2023-02-26T02:24:22;0.00;0.00;0.00
14880;PMS7003;7533;51.278;12.588;2023-02-26T02:29:46;0.00;0.00;0.00
14880;PMS7003;7533;51.278;12.588;2023-02-26T02:35:08;0.00;0.00;0.00
14880;PMS7003;7533;51.278;12.588;2023-02-26T02:40:18;0.00;0.00;0.00
14880;PMS7003;7533;51.278;12.588;2023-02-26T02:45:25;0.00;0.00;0.00
14880;PMS7003;7533;51.278;12.588;2023-02-26T02:50:36;0.00;0.00;0.00
14880;PMS7003;7533;51.278;12.588;2023-02-26T02:55:45;0.00;0.00;0.00
14880;PMS7003;7533;51.278;12.588;2023-02-26T03:00:53;0.00;0.00;0.00
14880;PMS7003;7533;51.278;12.588;2023-02-26T03:06:03;0.00;0.00;0.00
14880;PMS7003;7533;51.278;12.588;2023-02-26T03:11:06;0.00;0.00;0.00
14880;PMS7003;7533;51.278;12.588;2023-02-26T03:16:14;0.00;0.00;0.00
14880;PMS7003;7533;51.278;12.588;2023-02-26T03:21:45;0.00;0.00;0.00
14880;PMS7003;7533;51.278;12.588;2023-02-26T03:27:10;0.00;0.00;0.00
14880;PMS7003;7533;51.278;12.588;2023-02-26T03:32:20;0.00;0.00;0.00
14880;PMS7003;7533;51.278;12.588;2023-02-26T03:37:31;0.00;0.00;0.00
14880;PMS7003;7533;51.278;12.588;2023-02-26T03:42:39;0.00;0.00;0.00
14880;PMS7003;7533;51.278;12.588;2023-02-26T03:47:48;0.00;0.00;0.00
14880;PMS7003;7533;51.278;12.588;2023-02-26T03:52:57;0.00;0.00;0.00
14880;PMS7003;7533;51.278;12.588;2023-02-26T03:58:11;0.00;0.00;0.00
14880;PMS7003;7533;51.278;12.588;2023-02-26T04:03:46;0.00;0.00;0.00
14880;PMS7003;7533;51.278;12.588;2023-02-26T04:08:56;0.00;0.00;0.00
14880;PMS7003;7533;51.278;12.588;2023-02-26T04:14:00;0.00;0.00;0.00
14880;PMS7003;7533;51.278;12.588;2023-02-26T04:19:06;0.00;0.00;0.00
14880;PMS7003;7533;51.278;12.588;2023-02-26T04:24:10;0.00;0.00;0.00
14880;PMS7003;7533;51.278;12.588;2023-02-26T04:29:14;0.00;0.00;0.00
14880;PMS7003;7533;51.278;12.588;2023-02-26T04:34:17;0.00;0.00;0.00
14880;PMS7003;7533;51.278;12.588;2023-02-26T04:39:21;0.00;0.00;0.00
14880;PMS7003;7533;51.278;12.588;2023-02-26T04:44:24;0.00;0.00;0.00
14880;PMS7003;7533;51.278;12.588;2023-02-26T04:49:27;0.00;0.00;0.00
14880;PMS7003;7533;51.278;12.588;2023-02-26T04:54:32;0.00;0.00;0.00
14880;PMS7003;7533;51.278;12.588;2023-02-26T04:59:35;0.00;0.00;0.00
14880;PMS7003;7533;51.278;12.588;2023-02-26T05:04:39;0.00;0.00;0.00
14880;PMS7003;7533;51.278;12.588;2023-02-26T05:09:44;0.00;0.00;0.00
14880;PMS7003;7533;51.278;12.588;2023-02-26T05:14:47;0.00;0.00;0.00
14880;PMS7003;7533;51.278;12.588;2023-02-26T05:19:50;0.00;0.00;0.00
14880;PMS7003;7533;51.278;12.588;2023-02-26T05:24:54;0.00;0.00;0.00
14880;PMS7003;7533;51.278;12.588;2023-02-26T05:29:57;0.00;0.00;0.00
14880;PMS7003;7533;51.278;12.588;2023-02-26T05:35:00;0.00;0.00;0.00
14880;PMS7003;7533;51.278;12.588;2023-02-26T05:40:05;0.00;0.00;0.00
14880;PMS7003;7533;51.278;12.588;2023-02-26T05:45:11;0.00;0.00;0.00
14880;PMS7003;7533;51.278;12.588;2023-02-26T05:50:14;0.00;0.00;0.00
14880;PMS7003;7533;51.278;12.588;2023-02-26T05:55:18;0.00;0.00;0.00
14880;PMS7003;7533;51.278;12.588;2023-02-26T06:00:21;0.00;0.00;0.00
14880;PMS7003;7533;51.278;12.588;2023-02-26T06:05:24;0.00;0.00;0.00
14880;PMS7003;7533;51.278;12.588;2023-02-26T06:10:28;0.00;0.00;0.00
14880;PMS7003;7533;51.278;12.588;2023-02-26T06:15:31;0.00;0.00;0.00
14880;PMS7003;7533;51.278;12.588;2023-02-26T06:20:34;0.00;0.00;0.00
14880;PMS7003;7533;51.278;12.588;2023-02-26T06:25:38;0.00;0.00;0.00
14880;PMS7003;7533;51.278;12.588;2023-02-26T06:30:41;0.00;0.00;0.00
14880;PMS7003;7533;51.278;12.588;2023-02-26T06:35:44;0.00;0.00;0.00
14880;PMS7003;7533;51.278;12.588;2023-02-26T06:40:48;0.00;0.00;0.00
14880;PMS7003;7533;51.278;12.588;2023-02-26T06:45:51;0.00;0.00;0.00
14880;PMS7003;7533;51.278;12.588;2023-02-26T06:50:54;0.00;0.00;0.00
14880;PMS7003;7533;51.278;12.588;2023-02-26T06:55:58;0.00;0.00;0.00
14880;PMS7003;7533;51.278;12.588;2023-02-26T07:01:02;0.00;0.00;0.00
14880;PMS7003;7533;51.278;12.588;2023-02-26T07:06:06;0.00;0.00;0.00
14880;PMS7003;7533;51.278;12.588;2023-02-26T07:11:28;0.00;0.00;0.00
14880;PMS7003;7533;51.278;12.588;2023-02-26T07:16:31;0.00;0.00;0.00
14880;PMS7003;7533;51.278;12.588;2023-02-26T07:21:34;0.00;0.00;0.00
14880;PMS7003;7533;51.278;12.588;2023-02-26T07:26:38;0.00;0.00;0.00
14880;PMS7003;7533;51.278;12.588;2023-02-26T07:31:42;0.50;0.00;0.00
14880;PMS7003;7533;51.278;12.588;2023-02-26T07:36:45;0.50;0.00;0.00
14880;PMS7003;7533;51.278;12.588;2023-02-26T07:41:49;0.00;0.00;0.00
14880;PMS7003;7533;51.278;12.588;2023-02-26T07:46:55;0.00;0.00;0.00
14880;PMS7003;7533;51.278;12.588;2023-02-26T07:51:58;0.00;0.00;0.00
14880;PMS7003;7533;51.278;12.588;2023-02-26T07:57:02;0.00;0.00;0.00
14880;PMS7003;7533;51.278;12.588;2023-02-26T08:02:06;1.50;1.00;0.00
14880;PMS7003;7533;51.278;12.588;2023-02-26T08:07:09;1.00;1.00;1.00
14880;PMS7003;7533;51.278;12.588;2023-02-26T08:12:13;1.00;1.00;0.25
14880;PMS7003;7533;51.278;12.588;2023-02-26T08:17:16;1.50;1.00;1.00
14880;PMS7003;7533;51.278;12.588;2023-02-26T08:22:19;1.25;1.25;0.00
14880;PMS7003;7533;51.278;12.588;2023-02-26T08:27:25;0.50;0.50;0.00
14880;PMS7003;7533;51.278;12.588;2023-02-26T08:32:28;0.75;0.75;0.00
14880;PMS7003;7533;51.278;12.588;2023-02-26T08:37:31;0.50;0.00;0.00
14880;PMS7003;7533;51.278;12.588;2023-02-26T08:42:35;0.75;0.50;0.00
14880;PMS7003;7533;51.278;12.588;2023-02-26T08:47:39;0.00;0.00;0.00
14880;PMS7003;7533;51.278;12.588;2023-02-26T08:52:57;0.00;0.00;0.00
14880;PMS7003;7533;51.278;12.588;2023-02-26T08:58:01;0.75;0.00;0.00
14880;PMS7003;7533;51.278;12.588;2023-02-26T09:03:04;0.00;0.00;0.00
14880;PMS7003;7533;51.278;12.588;2023-02-26T09:08:07;0.00;0.00;0.00
14880;PMS7003;7533;51.278;12.588;2023-02-26T09:13:13;1.25;0.50;0.00
14880;PMS7003;7533;51.278;12.588;2023-02-26T09:18:16;0.00;0.00;0.00
14880;PMS7003;7533;51.278;12.588;2023-02-26T09:23:18;1.00;0.00;0.00
14880;PMS7003;7533;51.278;12.588;2023-02-26T09:28:23;0.00;0.00;0.00
14880;PMS7003;7533;51.278;12.588;2023-02-26T09:33:27;0.00;0.00;0.00
14880;PMS7003;7533;51.278;12.588;2023-02-26T09:38:30;0.00;0.00;0.00
14880;PMS7003;7533;51.278;12.588;2023-02-26T09:49:27;0.00;0.00;0.00
14880;PMS7003;7533;51.278;12.588;2023-02-26T09:54:38;0.00;0.00;0.00
14880;PMS7003;7533;51.278;12.588;2023-02-26T09:59:46;1.25;0.00;0.00
14880;PMS7003;7533;51.278;12.588;2023-02-26T10:04:52;0.00;0.00;0.00
14880;PMS7003;7533;51.278;12.588;2023-02-26T10:10:14;0.00;0.00;0.00
14880;PMS7003;7533;51.278;12.588;2023-02-26T10:15:21;1.00;0.00;0.00
14880;PMS7003;7533;51.278;12.588;2023-02-26T10:20:29;0.00;0.00;0.00
14880;PMS7003;7533;51.278;12.588;2023-02-26T10:25:40;0.00;0.00;0.00
14880;PMS7003;7533;51.278;12.588;2023-02-26T10:30:48;0.00;0.00;0.00
14880;PMS7003;7533;51.278;12.588;2023-02-26T10:35:57;0.00;0.00;0.00
14880;PMS7003;7533;51.278;12.588;2023-02-26T10:41:07;0.00;0.00;0.00
14880;PMS7003;7533;51.278;12.588;2023-02-26T10:46:17;0.00;0.00;0.00
14880;PMS7003;7533;51.278;12.588;2023-02-26T10:51:31;0.00;0.00;0.00
14880;PMS7003;7533;51.278;12.588;2023-02-26T10:56:36;0.00;0.00;0.00
14880;PMS7003;7533;51.278;12.588;2023-02-26T11:01:39;0.00;0.00;0.00
14880;PMS7003;7533;51.278;12.588;2023-02-26T11:06:44;0.00;0.00;0.00
14880;PMS7003;7533;51.278;12.588;2023-02-26T11:11:51;0.00;0.00;0.00
14880;PMS7003;7533;51.278;12.588;2023-02-26T11:16:56;0.50;0.00;0.00
14880;PMS7003;7533;51.278;12.588;2023-02-26T11:22:02;0.00;0.00;0.00
14880;PMS7003;7533;51.278;12.588;2023-02-26T11:27:11;0.00;0.00;0.00
14880;PMS7003;7533;51.278;12.588;2023-02-26T11:32:16;0.00;0.00;0.00
14880;PMS7003;7533;51.278;12.588;2023-02-26T11:37:23;1.50;1.50;0.00
14880;PMS7003;7533;51.278;12.588;2023-02-26T11:42:29;4.00;4.00;3.00
14880;PMS7003;7533;51.278;12.588;2023-02-26T11:47:31;13.00;11.75;9.75
14880;PMS7003;7533;51.278;12.588;2023-02-26T11:52:40;16.60;14.80;12.60
14880;PMS7003;7533;51.278;12.588;2023-02-26T11:57:46;11.25;10.50;9.00
14880;PMS7003;7533;51.278;12.588;2023-02-26T12:02:57;8.75;8.25;6.75
14880;PMS7003;7533;51.278;12.588;2023-02-26T12:08:04;8.50;7.50;5.50
14880;PMS7003;7533;51.278;12.588;2023-02-26T12:13:19;5.00;5.00;3.00
14880;PMS7003;7533;51.278;12.588;2023-02-26T12:18:34;2.00;2.00;1.00
14880;PMS7003;7533;51.278;12.588;2023-02-26T12:23:55;3.50;2.75;1.00
14880;PMS7003;7533;51.278;12.588;2023-02-26T12:29:19;1.00;1.00;1.00
14880;PMS7003;7533;51.278;12.588;2023-02-26T12:34:37;2.00;2.00;0.00
14880;PMS7003;7533;51.278;12.588;2023-02-26T12:40:04;1.00;1.00;0.00
14880;PMS7003;7533;51.278;12.588;2023-02-26T12:45:25;1.50;1.50;0.00
14880;PMS7003;7533;51.278;12.588;2023-02-26T12:50:47;0.00;0.00;0.00
14880;PMS7003;7533;51.278;12.588;2023-02-26T12:56:03;1.50;0.25;0.00
14880;PMS7003;7533;51.278;12.588;2023-02-26T13:01:26;1.75;0.75;0.50
14880;PMS7003;7533;51.278;12.588;2023-02-26T13:06:53;1.50;1.50;0.00
14880;PMS7003;7533;51.278;12.588;2023-02-26T13:12:06;0.75;0.00;0.00
14880;PMS7003;7533;51.278;12.588;2023-02-26T13:17:21;0.75;0.75;0.00
14880;PMS7003;7533;51.278;12.588;2023-02-26T13:22:29;3.00;0.75;0.00
14880;PMS7003;7533;51.278;12.588;2023-02-26T13:27:36;0.50;0.50;0.00
14880;PMS7003;7533;51.278;12.588;2023-02-26T13:32:40;0.75;0.75;0.00
14880;PMS7003;7533;51.278;12.588;2023-02-26T13:37:46;0.25;0.00;0.00
14880;PMS7003;7533;51.278;12.588;2023-02-26T13:42:56;1.25;0.00;0.00
14880;PMS7003;7533;51.278;12.588;2023-02-26T13:48:09;2.00;0.50;0.00
14880;PMS7003;7533;51.278;12.588;2023-02-26T13:59:01;1.00;1.00;0.00
14880;PMS7003;7533;51.278;12.588;2023-02-26T14:04:07;1.00;1.00;0.00
14880;PMS7003;7533;51.278;12.588;2023-02-26T14:09:45;1.00;0.75;0.00
14880;PMS7003;7533;51.278;12.588;2023-02-26T14:20:29;0.00;0.00;0.00
14880;PMS7003;7533;51.278;12.588;2023-02-26T14:25:39;0.75;0.25;0.00
14880;PMS7003;7533;51.278;12.588;2023-02-26T14:30:45;0.00;0.00;0.00
14880;PMS7003;7533;51.278;12.588;2023-02-26T14:35:51;0.50;0.00;0.00
14880;PMS7003;7533;51.278;12.588;2023-02-26T14:40:56;0.00;0.00;0.00
14880;PMS7003;7533;51.278;12.588;2023-02-26T14:46:06;1.00;0.00;0.00
14880;PMS7003;7533;51.278;12.588;2023-02-26T14:51:14;0.25;0.00;0.00
14880;PMS7003;7533;51.278;12.588;2023-02-26T14:56:29;0.50;0.00;0.00
14880;PMS7003;7533;51.278;12.588;2023-02-26T15:01:56;0.33;0.00;0.00
14880;PMS7003;7533;51.278;12.588;2023-02-26T15:07:26;0.00;0.00;0.00
14880;PMS7003;7533;51.278;12.588;2023-02-26T15:12:40;0.50;0.00;0.00
14880;PMS7003;7533;51.278;12.588;2023-02-26T15:18:07;0.00;0.00;0.00
14880;PMS7003;7533;51.278;12.588;2023-02-26T15:23:25;1.00;1.00;0.00
14880;PMS7003;7533;51.278;12.588;2023-02-26T15:28:38;0.00;0.00;0.00
14880;PMS7003;7533;51.278;12.588;2023-02-26T15:33:43;0.00;0.00;0.00
14880;PMS7003;7533;51.278;12.588;2023-02-26T15:38:54;0.00;0.00;0.00
14880;PMS7003;7533;51.278;12.588;2023-02-26T15:43:59;0.00;0.00;0.00
14880;PMS7003;7533;51.278;12.588;2023-02-26T15:49:07;0.50;0.00;0.00
14880;PMS7003;7533;51.278;12.588;2023-02-26T15:54:14;0.00;0.00;0.00
14880;PMS7003;7533;51.278;12.588;2023-02-26T15:59:21;6.75;5.00;2.50
14880;PMS7003;7533;51.278;12.588;2023-02-26T16:04:29;1.00;0.00;0.00
14880;PMS7003;7533;51.278;12.588;2023-02-26T16:09:33;1.00;1.00;0.00
14880;PMS7003;7533;51.278;12.588;2023-02-26T16:14:37;0.75;0.75;0.00
14880;PMS7003;7533;51.278;12.588;2023-02-26T16:19:44;1.75;0.00;0.00
14880;PMS7003;7533;51.278;12.588;2023-02-26T16:24:51;0.75;0.75;0.00
14880;PMS7003;7533;51.278;12.588;2023-02-26T16:29:58;0.50;0.50;0.00
14880;PMS7003;7533;51.278;12.588;2023-02-26T16:35:09;0.00;0.00;0.00
14880;PMS7003;7533;51.278;12.588;2023-02-26T16:40:17;1.00;1.00;0.00
14880;PMS7003;7533;51.278;12.588;2023-02-26T16:45:40;1.50;1.50;0.00
14880;PMS7003;7533;51.278;12.588;2023-02-26T16:50:54;0.25;0.25;0.00
14880;PMS7003;7533;51.278;12.588;2023-02-26T16:56:01;0.00;0.00;0.00
14880;PMS7003;7533;51.278;12.588;2023-02-26T17:01:07;0.00;0.00;0.00
14880;PMS7003;7533;51.278;12.588;2023-02-26T17:06:16;0.75;0.75;0.00
14880;PMS7003;7533;51.278;12.588;2023-02-26T17:11:22;1.25;0.75;0.00
14880;PMS7003;7533;51.278;12.588;2023-02-26T17:16:28;0.50;0.00;0.00
14880;PMS7003;7533;51.278;12.588;2023-02-26T17:21:32;1.00;0.00;0.00
14880;PMS7003;7533;51.278;12.588;2023-02-26T17:26:37;0.00;0.00;0.00
14880;PMS7003;7533;51.278;12.588;2023-02-26T17:31:40;0.75;0.75;0.00
14880;PMS7003;7533;51.278;12.588;2023-02-26T17:36:45;0.00;0.00;0.00
14880;PMS7003;7533;51.278;12.588;2023-02-26T17:41:48;0.00;0.00;0.00
14880;PMS7003;7533;51.278;12.588;2023-02-26T17:46:51;1.75;1.00;0.00
14880;PMS7003;7533;51.278;12.588;2023-02-26T17:51:55;2.75;2.00;0.00
14880;PMS7003;7533;51.278;12.588;2023-02-26T17:56:58;2.75;1.75;1.00
14880;PMS7003;7533;51.278;12.588;2023-02-26T18:02:06;3.00;2.75;1.00
14880;PMS7003;7533;51.278;12.588;2023-02-26T18:07:19;2.00;2.00;1.00
14880;PMS7003;7533;51.278;12.588;2023-02-26T18:12:23;2.00;2.00;1.00
14880;PMS7003;7533;51.278;12.588;2023-02-26T18:17:27;1.00;1.00;0.00
14880;PMS7003;7533;51.278;12.588;2023-02-26T18:22:32;3.75;2.50;1.00
14880;PMS7003;7533;51.278;12.588;2023-02-26T18:27:36;3.00;2.50;1.25
14880;PMS7003;7533;51.278;12.588;2023-02-26T18:32:39;4.25;2.50;1.00
14880;PMS7003;7533;51.278;12.588;2023-02-26T18:37:43;2.00;2.00;0.50
14880;PMS7003;7533;51.278;12.588;2023-02-26T18:42:47;1.25;1.25;0.00
14880;PMS7003;7533;51.278;12.588;2023-02-26T18:47:50;2.00;2.00;0.75
14880;PMS7003;7533;51.278;12.588;2023-02-26T18:52:55;1.50;1.50;0.00
14880;PMS7003;7533;51.278;12.588;2023-02-26T18:57:58;3.50;3.00;1.00
14880;PMS7003;7533;51.278;12.588;2023-02-26T19:03:01;3.00;3.00;1.00
14880;PMS7003;7533;51.278;12.588;2023-02-26T19:08:06;5.50;4.00;2.00
14880;PMS7003;7533;51.278;12.588;2023-02-26T19:13:09;1.25;1.25;0.50
14880;PMS7003;7533;51.278;12.588;2023-02-26T19:18:12;3.75;3.00;1.00
14880;PMS7003;7533;51.278;12.588;2023-02-26T19:23:16;2.25;2.25;0.25
14880;PMS7003;7533;51.278;12.588;2023-02-26T19:28:20;3.25;2.00;0.00
14880;PMS7003;7533;51.278;12.588;2023-02-26T19:33:23;2.00;2.00;1.00
14880;PMS7003;7533;51.278;12.588;2023-02-26T19:38:27;2.00;2.00;1.00
14880;PMS7003;7533;51.278;12.588;2023-02-26T19:43:30;1.75;1.75;1.00
14880;PMS7003;7533;51.278;12.588;2023-02-26T19:48:33;3.50;2.00;0.75
14880;PMS7003;7533;51.278;12.588;2023-02-26T19:53:37;3.75;3.75;2.00
14880;PMS7003;7533;51.278;12.588;2023-02-26T19:58:40;2.00;2.00;1.00
14880;PMS7003;7533;51.278;12.588;2023-02-26T20:03:44;2.75;2.25;2.00
14880;PMS7003;7533;51.278;12.588;2023-02-26T20:08:50;3.00;2.00;1.00
14880;PMS7003;7533;51.278;12.588;2023-02-26T20:13:53;3.25;2.00;1.50
14880;PMS7003;7533;51.278;12.588;2023-02-26T20:18:56;3.50;2.75;0.50
14880;PMS7003;7533;51.278;12.588;2023-02-26T20:24:01;2.75;1.00;0.50
14880;PMS7003;7533;51.278;12.588;2023-02-26T20:29:05;4.25;2.50;1.75
14880;PMS7003;7533;51.278;12.588;2023-02-26T20:34:08;3.00;3.00;1.25
14880;PMS7003;7533;51.278;12.588;2023-02-26T20:39:13;2.25;2.25;1.00
14880;PMS7003;7533;51.278;12.588;2023-02-26T20:44:16;2.25;2.25;1.00
14880;PMS7003;7533;51.278;12.588;2023-02-26T20:49:19;4.75;4.25;2.00
14880;PMS7003;7533;51.278;12.588;2023-02-26T20:54:24;4.00;3.00;2.00
14880;PMS7003;7533;51.278;12.588;2023-02-26T20:59:27;3.50;3.50;1.00
14880;PMS7003;7533;51.278;12.588;2023-02-26T21:04:30;2.50;2.50;2.00
14880;PMS7003;7533;51.278;12.588;2023-02-26T21:09:34;2.75;2.75;2.00
14880;PMS7003;7533;51.278;12.588;2023-02-26T21:14:37;3.00;3.00;1.00
14880;PMS7003;7533;51.278;12.588;2023-02-26T21:19:40;3.50;2.25;1.50
14880;PMS7003;7533;51.278;12.588;2023-02-26T21:24:44;2.00;2.00;1.00
14880;PMS7003;7533;51.278;12.588;2023-02-26T21:29:47;4.75;4.75;2.50
14880;PMS7003;7533;51.278;12.588;2023-02-26T21:34:50;4.00;4.00;2.00
14880;PMS7003;7533;51.278;12.588;2023-02-26T21:39:54;3.25;3.25;2.00
14880;PMS7003;7533;51.278;12.588;2023-02-26T21:44:57;4.00;3.75;2.50
14880;PMS7003;7533;51.278;12.588;2023-02-26T21:50:00;4.00;3.75;1.50
14880;PMS7003;7533;51.278;12.588;2023-02-26T21:55:05;5.75;4.50;2.00
14880;PMS7003;7533;51.278;12.588;2023-02-26T22:00:09;4.00;3.00;1.25
14880;PMS7003;7533;51.278;12.588;2023-02-26T22:05:12;3.75;2.25;1.50
14880;PMS7003;7533;51.278;12.588;2023-02-26T22:10:17;3.25;3.25;2.00
14880;PMS7003;7533;51.278;12.588;2023-02-26T22:15:20;3.00;3.00;2.50
14880;PMS7003;7533;51.278;12.588;2023-02-26T22:20:23;2.75;2.75;1.00
14880;PMS7003;7533;51.278;12.588;2023-02-26T22:25:27;4.00;3.00;1.00
14880;PMS7003;7533;51.278;12.588;2023-02-26T22:30:31;5.25;4.00;1.50
14880;PMS7003;7533;51.278;12.588;2023-02-26T22:35:34;2.75;2.75;1.00
14880;PMS7003;7533;51.278;12.588;2023-02-26T22:40:38;3.75;2.50;1.25
14880;PMS7003;7533;51.278;12.588;2023-02-26T22:45:41;3.00;3.00;1.50
14880;PMS7003;7533;51.278;12.588;2023-02-26T22:50:44;3.50;2.75;1.50
14880;PMS7003;7533;51.278;12.588;2023-02-26T22:55:48;3.25;3.25;1.00
14880;PMS7003;7533;51.278;12.588;2023-02-26T23:00:56;3.50;3.50;1.25
14880;PMS7003;7533;51.278;12.588;2023-02-26T23:05:59;3.25;2.50;1.75
14880;PMS7003;7533;51.278;12.588;2023-02-26T23:11:04;2.25;2.00;1.00
14880;PMS7003;7533;51.278;12.588;2023-02-26T23:16:08;1.50;1.50;1.00
14880;PMS7003;7533;51.278;12.588;2023-02-26T23:21:12;2.00;2.00;1.00
14880;PMS7003;7533;51.278;12.588;2023-02-26T23:26:18;2.00;2.00;0.25
14880;PMS7003;7533;51.278;12.588;2023-02-26T23:31:20;4.00;2.50;1.00
14880;PMS7003;7533;51.278;12.588;2023-02-26T23:36:23;1.75;1.75;1.00
14880;PMS7003;7533;51.278;12.588;2023-02-26T23:41:28;3.00;3.00;1.25
14880;PMS7003;7533;51.278;12.588;2023-02-26T23:46:30;3.00;3.00;2.00
14880;PMS7003;7533;51.278;12.588;2023-02-26T23:51:33;4.25;3.00;1.50
14880;PMS7003;7533;51.278;12.588;2023-02-26T23:56:40;2.50;2.50;1.00
